createdAt,value
2022-11-17T00:06:43.952Z,7.90
2022-11-17T00:14:04.233Z,7.86
2022-11-17T00:21:22.000Z,7.76
2022-11-17T00:28:23.552Z,7.79
2022-11-17T00:35:25.099Z,7.59
2022-11-17T00:42:26.676Z,7.61
2022-11-17T00:49:28.305Z,7.66
2022-11-17T00:56:29.912Z,7.69
2022-11-17T01:03:31.469Z,7.51
2022-11-17T01:10:34.965Z,7.49
2022-11-17T01:17:36.565Z,7.49
2022-11-17T01:24:38.134Z,7.33
2022-11-17T01:31:43.232Z,7.38
2022-11-17T01:38:44.914Z,7.24
2022-11-17T01:45:46.456Z,7.06
2022-11-17T01:52:49.159Z,7.17
2022-11-17T01:59:59.349Z,7.04
2022-11-17T02:07:03.537Z,7.09
2022-11-17T02:14:05.387Z,7.08
2022-11-17T02:21:34.277Z,7.14
2022-11-17T02:28:37.170Z,7.04
2022-11-17T02:35:47.742Z,6.99
2022-11-17T02:43:52.752Z,6.98
2022-11-17T02:50:54.854Z,6.91
2022-11-17T02:57:56.470Z,6.86
2022-11-17T03:05:14.805Z,7.00
2022-11-17T03:12:21.680Z,7.00
2022-11-17T03:19:32.739Z,6.85
2022-11-17T03:26:37.506Z,6.83
2022-11-17T03:33:39.255Z,6.79
2022-11-17T03:40:41.369Z,6.85
2022-11-17T03:47:42.962Z,6.89
2022-11-17T03:54:44.565Z,6.93
2022-11-17T04:01:46.195Z,6.90
2022-11-17T04:08:47.862Z,6.93
2022-11-17T04:15:59.071Z,6.96
2022-11-17T04:23:06.973Z,6.87
2022-11-17T04:30:09.251Z,6.77
2022-11-17T04:37:17.324Z,6.81
2022-11-17T04:44:19.062Z,6.86
2022-11-17T04:51:20.991Z,6.91
2022-11-17T04:58:22.578Z,6.99
2022-11-17T05:05:24.174Z,6.89
2022-11-17T05:12:44.207Z,6.87
2022-11-17T05:19:46.698Z,6.87
2022-11-17T05:26:48.819Z,6.80
2022-11-17T05:33:50.608Z,6.97
2022-11-17T05:40:52.162Z,7.01
2022-11-17T05:47:53.707Z,7.05
2022-11-17T05:54:57.417Z,6.98
2022-11-17T06:02:07.387Z,6.98
2022-11-17T06:09:08.935Z,7.02
2022-11-17T06:16:10.956Z,6.97
2022-11-17T06:23:12.556Z,7.04
2022-11-17T06:30:14.181Z,7.06
2022-11-17T06:37:15.752Z,7.03
2022-11-17T06:44:17.317Z,6.98
2022-11-17T06:51:18.993Z,7.10
2022-11-17T06:58:20.590Z,7.04
2022-11-17T07:05:22.121Z,7.13
2022-11-17T07:12:23.687Z,7.16
2022-11-17T07:19:25.273Z,7.08
2022-11-17T07:26:26.837Z,7.08
2022-11-17T07:33:28.434Z,7.19
2022-11-17T07:40:30.067Z,6.96
2022-11-17T07:47:31.641Z,7.04
2022-11-17T07:54:33.194Z,6.99
2022-11-17T08:01:34.894Z,7.10
2022-11-17T08:08:37.866Z,7.10
2022-11-17T08:15:41.997Z,7.04
2022-11-17T08:22:44.143Z,7.04
2022-11-17T08:29:45.723Z,7.15
2022-11-17T08:36:47.287Z,7.23
2022-11-17T08:43:50.276Z,7.21
2022-11-17T08:50:51.967Z,7.27
2022-11-17T08:57:53.515Z,7.26
2022-11-17T09:04:55.076Z,7.34
2022-11-17T09:11:56.881Z,7.20
2022-11-17T09:18:58.519Z,7.40
2022-11-17T09:26:22.561Z,7.43
2022-11-17T09:33:24.203Z,7.46
2022-11-17T09:40:25.891Z,7.40
2022-11-17T09:47:50.427Z,7.40
2022-11-17T09:55:17.719Z,7.44
2022-11-17T10:02:19.586Z,7.43
2022-11-17T10:09:35.473Z,7.53
2022-11-17T10:16:37.652Z,7.55
2022-11-17T10:23:47.036Z,7.48
2022-11-17T10:30:54.318Z,7.52
2022-11-17T10:37:57.376Z,7.56
2022-11-17T10:44:59.788Z,7.60
2022-11-17T10:52:19.722Z,7.47
2022-11-17T10:59:31.885Z,7.46
2022-11-17T11:06:34.138Z,7.46
2022-11-17T11:13:45.874Z,7.55
2022-11-17T11:21:18.037Z,7.60
2022-11-17T11:28:22.585Z,7.56
2022-11-17T11:36:15.464Z,7.59
2022-11-17T11:43:32.656Z,7.61
2022-11-17T11:50:48.863Z,7.64
2022-11-17T11:58:12.907Z,7.63
2022-11-17T12:05:24.329Z,7.61
2022-11-17T12:12:34.186Z,7.67
2022-11-17T12:19:48.524Z,7.62
2022-11-17T12:26:50.075Z,7.73
2022-11-17T12:33:55.384Z,7.69
2022-11-17T12:40:56.970Z,7.77
2022-11-17T12:48:26.435Z,7.72
2022-11-17T12:55:34.417Z,7.83
2022-11-17T13:02:42.780Z,7.65
2022-11-17T13:09:44.359Z,7.67
2022-11-17T13:16:48.107Z,7.69
2022-11-17T13:23:49.760Z,7.68
2022-11-17T13:30:51.319Z,7.68
2022-11-17T13:38:11.347Z,7.60
2022-11-17T13:45:16.126Z,7.69
2022-11-17T13:52:37.000Z,7.70
2022-11-17T13:59:40.872Z,7.77
2022-11-17T14:07:12.065Z,7.61
2022-11-17T14:14:14.135Z,7.56
2022-11-17T14:21:16.568Z,7.54
2022-11-17T14:28:19.598Z,7.53
2022-11-17T14:35:21.145Z,7.54
2022-11-17T14:42:22.766Z,7.41
2022-11-17T14:49:24.364Z,7.45
2022-11-17T14:56:26.010Z,7.41
2022-11-17T15:03:27.594Z,7.45
2022-11-17T15:10:29.144Z,7.41
2022-11-17T15:17:30.733Z,7.37
2022-11-17T15:24:32.300Z,7.36
2022-11-17T15:31:33.890Z,7.37
2022-11-17T15:38:36.148Z,7.28
2022-11-17T15:45:37.734Z,7.27
2022-11-17T15:53:03.050Z,7.26
2022-11-17T16:00:00.997Z,7.27
2022-11-17T16:07:04.163Z,7.24
2022-11-17T16:14:05.892Z,7.25
2022-11-17T16:21:12.459Z,7.09
2022-11-17T16:28:14.087Z,7.11
2022-11-17T16:35:15.668Z,7.04
2022-11-17T16:42:17.205Z,6.98
2022-11-17T16:49:19.507Z,6.76
2022-11-17T16:56:21.480Z,6.85
2022-11-17T17:03:23.425Z,6.91
2022-11-17T17:10:25.090Z,6.86
2022-11-17T17:17:26.749Z,6.92
2022-11-17T17:24:28.412Z,6.85
2022-11-17T17:31:32.174Z,6.80
2022-11-17T17:38:33.954Z,6.68
2022-11-17T17:45:37.782Z,6.73
2022-11-17T17:52:39.359Z,6.73
2022-11-17T17:59:40.913Z,6.59
2022-11-17T18:06:43.689Z,6.73
2022-11-17T18:13:46.685Z,6.66
2022-11-17T18:20:48.474Z,6.73
2022-11-17T18:27:51.470Z,6.69
2022-11-17T18:34:53.026Z,6.64
2022-11-17T18:41:54.705Z,6.58
2022-11-17T18:48:56.661Z,6.59
2022-11-17T18:56:02.612Z,6.71
2022-11-17T19:03:04.186Z,6.72
2022-11-17T19:10:06.045Z,6.56
2022-11-17T19:17:07.592Z,6.61
2022-11-17T19:24:09.206Z,6.61
2022-11-17T19:31:12.444Z,6.48
2022-11-17T19:38:14.033Z,6.53
2022-11-17T19:45:16.571Z,6.33
2022-11-17T19:52:18.606Z,6.33
2022-11-17T19:59:20.346Z,6.21
2022-11-17T20:06:23.597Z,6.15
2022-11-17T20:13:25.162Z,6.06
2022-11-17T20:20:27.007Z,6.08
2022-11-17T20:27:28.578Z,6.10
2022-11-17T20:34:30.136Z,6.15
2022-11-17T20:41:31.676Z,6.04
2022-11-17T20:48:35.127Z,6.10
2022-11-17T20:55:38.195Z,6.06
2022-11-17T21:02:39.746Z,5.98
2022-11-17T21:09:41.290Z,6.09
2022-11-17T21:16:45.516Z,6.03
2022-11-17T21:23:47.191Z,6.00
2022-11-17T21:30:48.787Z,5.90
2022-11-17T21:37:50.370Z,5.92
2022-11-17T21:44:51.977Z,5.86
2022-11-17T21:51:53.592Z,5.85
2022-11-17T21:58:58.771Z,5.85
2022-11-17T22:06:13.942Z,5.65
2022-11-17T22:13:15.587Z,5.75
2022-11-17T22:20:17.194Z,5.71
2022-11-17T22:27:18.778Z,5.86
2022-11-17T22:34:20.422Z,5.63
2022-11-17T22:41:22.162Z,5.65
2022-11-17T22:48:23.774Z,5.72
2022-11-17T22:55:25.309Z,5.72
2022-11-17T23:02:26.886Z,5.67
2022-11-17T23:09:28.447Z,5.67
2022-11-17T23:16:30.068Z,5.63
2022-11-17T23:23:36.061Z,5.60
2022-11-17T23:30:37.650Z,5.52
2022-11-17T23:37:40.274Z,5.62
2022-11-17T23:44:41.866Z,5.60
2022-11-17T23:51:43.450Z,5.45
2022-11-17T23:58:45.013Z,5.54
